Map

Track Data

SID SEASON NUMBER BASIN SUBBASIN NAME ISO_TIME NATURE LAT LON WMO_WIND WMO_PRES WMO_AGENCY TRACK_TYPE DIST2LAND LANDFALL IFLAG USA_AGENCY USA_ATCF_ID USA_LAT USA_LON USA_RECORD USA_STATUS USA_WIND USA_PRES USA_SSHS USA_R34_NE USA_R34_SE USA_R34_SW USA_R34_NW USA_R50_NE USA_R50_SE USA_R50_SW USA_R50_NW USA_R64_NE USA_R64_SE USA_R64_SW USA_R64_NW USA_POCI USA_ROCI USA_RMW USA_EYE TOKYO_LAT TOKYO_LON TOKYO_GRADE TOKYO_WIND TOKYO_PRES TOKYO_R50_DIR TOKYO_R50_LONG TOKYO_R50_SHORT TOKYO_R30_DIR TOKYO_R30_LONG TOKYO_R30_SHORT TOKYO_LAND CMA_LAT CMA_LON CMA_CAT CMA_WIND CMA_PRES HKO_LAT HKO_LON HKO_CAT HKO_WIND HKO_PRES NEWDELHI_LAT NEWDELHI_LON NEWDELHI_GRADE NEWDELHI_WIND NEWDELHI_PRES NEWDELHI_CI NEWDELHI_DP NEWDELHI_POCI REUNION_LAT REUNION_LON REUNION_TYPE REUNION_WIND REUNION_PRES REUNION_TNUM REUNION_CI REUNION_RMW REUNION_R34_NE REUNION_R34_SE REUNION_R34_SW REUNION_R34_NW REUNION_R50_NE REUNION_R50_SE REUNION_R50_SW REUNION_R50_NW REUNION_R64_NE REUNION_R64_SE REUNION_R64_SW REUNION_R64_NW BOM_LAT BOM_LON BOM_TYPE BOM_WIND BOM_PRES BOM_TNUM BOM_CI BOM_RMW BOM_R34_NE BOM_R34_SE BOM_R34_SW BOM_R34_NW BOM_R50_NE BOM_R50_SE BOM_R50_SW BOM_R50_NW BOM_R64_NE BOM_R64_SE BOM_R64_SW BOM_R64_NW BOM_ROCI BOM_POCI BOM_EYE BOM_POS_METHOD BOM_PRES_METHOD NADI_LAT NADI_LON NADI_CAT NADI_WIND NADI_PRES WELLINGTON_LAT WELLINGTON_LON WELLINGTON_WIND WELLINGTON_PRES DS824_LAT DS824_LON DS824_STAGE DS824_WIND DS824_PRES TD9636_LAT TD9636_LON TD9636_STAGE TD9636_WIND TD9636_PRES TD9635_LAT TD9635_LON TD9635_WIND TD9635_PRES TD9635_ROCI NEUMANN_LAT NEUMANN_LON NEUMANN_CLASS NEUMANN_WIND NEUMANN_PRES MLC_LAT MLC_LON MLC_CLASS MLC_WIND MLC_PRES USA_GUST BOM_GUST BOM_GUST_PER REUNION_GUST REUNION_GUST_PER USA_SEAHGT USA_SEARAD_NE USA_SEARAD_SE USA_SEARAD_SW USA_SEARAD_NW STORM_SPEED STORM_DIR
1933241N17132 1933 46 WP MM NOT_NAMED 1933-08-28 21:00:00 NR 16.5000 131.600 main 814 814 __________O___ -1 16.5000 131.600 4 5 353
1933241N17132 1933 46 WP MM NOT_NAMED 1933-08-29 00:00:00 NR 16.7484 131.555 main 827 826 __________P___ -1 16.7484 131.555 4 5 350
1933241N17132 1933 46 WP MM NOT_NAMED 1933-08-29 03:00:00 NR 16.9975 131.508 main 836 836 __________P___ -1 16.9975 131.508 4 5 349
1933241N17132 1933 46 WP MM NOT_NAMED 1933-08-29 06:00:00 NR 17.2478 131.457 main 845 840 __________P___ -1 17.2478 131.457 4 5 348
1933241N17132 1933 46 WP MM NOT_NAMED 1933-08-29 09:00:00 NR 17.5000 131.400 main 850 850 __________O___ -1 17.5000 131.400 4 5 347
1933241N17132 1933 46 WP MM NOT_NAMED 1933-08-29 12:00:00 NR 17.7541 131.336 main 857 857 __________P___ -1 17.7541 131.336 4 5 345
1933241N17132 1933 46 WP MM NOT_NAMED 1933-08-29 15:00:00 NR 18.0075 131.265 main 868 865 __________P___ -1 18.0075 131.265 4 5 344
1933241N17132 1933 46 WP MM NOT_NAMED 1933-08-29 18:00:00 NR 18.2572 131.186 main 877 875 __________P___ -1 18.2572 131.186 4 5 342
1933241N17132 1933 46 WP MM NOT_NAMED 1933-08-29 21:00:00 NR 18.5000 131.100 main 881 879 __________O___ -1 18.5000 131.100 4 4 339
1933241N17132 1933 46 WP MM NOT_NAMED 1933-08-30 00:00:00 NR 18.6672 131.015 main 885 884 __________P___ -1 18.6672 131.015 4 4 333
1933241N17132 1933 46 WP MM NOT_NAMED 1933-08-30 03:00:00 NR 18.8375 130.922 main 884 884 __________P___ -1 18.8375 130.922 4 4 335
1933241N17132 1933 46 WP MM NOT_NAMED 1933-08-30 06:00:00 NR 19.0641 130.818 main 896 888 __________P___ -1 19.0641 130.818 4 6 340
1933241N17132 1933 46 WP MM NOT_NAMED 1933-08-30 09:00:00 NR 19.4000 130.700 main 890 884 __________O___ -1 19.4000 130.700 4 9 347
1933241N17132 1933 46 WP MM NOT_NAMED 1933-08-30 12:00:00 NR 19.9462 130.605 main 887 886 __________P___ -1 19.9462 130.605 4 12 351
1933241N17132 1933 46 WP MM NOT_NAMED 1933-08-30 15:00:00 NR 20.5970 130.489 main 893 889 __________P___ -1 20.5970 130.489 4 14 349
1933241N17132 1933 46 WP MM NOT_NAMED 1933-08-30 18:00:00 NR 21.2742 130.329 main 897 886 __________P___ -1 21.2742 130.329 4 14 344
1933241N17132 1933 46 WP MM NOT_NAMED 1933-08-30 21:00:00 NR 21.9000 130.100 main 886 842 __________O___ -1 21.9000 130.100 4 12 335
1933241N17132 1933 46 WP MM NOT_NAMED 1933-08-31 00:00:00 NR 22.3484 129.791 main 842 789 __________P___ -1 22.3484 129.791 4 11 323
1933241N17132 1933 46 WP MM NOT_NAMED 1933-08-31 03:00:00 NR 22.7373 129.411 main 789 738 __________P___ -1 22.7373 129.411 4 11 315
1933241N17132 1933 46 WP MM NOT_NAMED 1933-08-31 06:00:00 NR 23.1075 128.975 main 738 679 __________P___ -1 23.1075 128.975 4 11 312
1933241N17132 1933 46 WP MM NOT_NAMED 1933-08-31 09:00:00 NR 23.5000 128.500 main 679 616 __________O___ -1 23.5000 128.500 4 13 315
1933241N17132 1933 46 WP MM NOT_NAMED 1933-08-31 12:00:00 NR 24.0124 127.988 main 616 557 __________P___ -1 24.0124 127.988 4 14 317
1933241N17132 1933 46 WP MM NOT_NAMED 1933-08-31 15:00:00 NR 24.5458 127.445 main 547 493 __________P___ -1 24.5458 127.445 4 14 317
1933241N17132 1933 46 WP MM NOT_NAMED 1933-08-31 18:00:00 NR 25.0562 126.904 main 493 445 __________P___ -1 25.0562 126.904 4 13 315
1933241N17132 1933 46 WP MM NOT_NAMED 1933-08-31 21:00:00 NR 25.5000 126.400 main 445 411 __________O___ -1 25.5000 126.400 4 11 311
1933241N17132 1933 46 WP MM NOT_NAMED 1933-09-01 00:00:00 NR 25.8009 125.959 main 411 377 __________P___ -1 25.8009 125.959 4 9 306
1933241N17132 1933 46 WP MM NOT_NAMED 1933-09-01 03:00:00 NR 26.0367 125.565 main 377 347 __________P___ -1 26.0367 125.565 4 8 304
1933241N17132 1933 46 WP MM NOT_NAMED 1933-09-01 06:00:00 NR 26.2542 125.213 main 351 335 __________P___ -1 26.2542 125.213 4 8 308
1933241N17132 1933 46 WP MM NOT_NAMED 1933-09-01 09:00:00 NR 26.5000 124.900 main 335 326 __________O___ -1 26.5000 124.900 4 8 317
1933241N17132 1933 46 WP MM NOT_NAMED 1933-09-01 12:00:00 NR 26.8305 124.606 main 328 301 __________P___ -1 26.8305 124.606 4 9 325
1933241N17132 1933 46 WP MM NOT_NAMED 1933-09-01 15:00:00 NR 27.1970 124.347 main 292 257 __________P___ -1 27.1970 124.347 4 9 330
1933241N17132 1933 46 WP MM NOT_NAMED 1933-09-01 18:00:00 NR 27.5900 124.115 main 257 227 __________P___ -1 27.5900 124.115 4 9 334
1933241N17132 1933 46 WP MM NOT_NAMED 1933-09-01 21:00:00 NR 28.0000 123.900 main 227 179 __________O___ -1 28.0000 123.900 4 9 331
1933241N17132 1933 46 WP MM NOT_NAMED 1933-09-02 00:00:00 NR 28.3863 123.622 main 179 143 __________P___ -1 28.3863 123.622 4 9 329
1933241N17132 1933 46 WP MM NOT_NAMED 1933-09-02 03:00:00 NR 28.7901 123.368 main 143 116 __________P___ -1 28.7901 123.368 4 9 335
1933241N17132 1933 46 WP MM NOT_NAMED 1933-09-02 06:00:00 NR 29.2237 123.179 main 116 107 __________P___ -1 29.2237 123.179 4 9 346
1933241N17132 1933 46 WP MM NOT_NAMED 1933-09-02 09:00:00 NR 29.7000 123.100 main 116 115 __________O___ -1 29.7000 123.100 4 11 0
1933241N17132 1933 46 WP MM NOT_NAMED 1933-09-02 12:00:00 NR 30.2722 123.159 main 136 128 __________P___ -1 30.2722 123.159 4 12 10
1933241N17132 1933 46 WP MM NOT_NAMED 1933-09-02 15:00:00 NR 30.8796 123.332 main 133 133 __________P___ -1 30.8796 123.332 4 13 17
1933241N17132 1933 46 WP MM NOT_NAMED 1933-09-02 18:00:00 NR 31.4723 123.590 main 162 161 __________P___ -1 31.4723 123.590 4 12 23
1933241N17132 1933 46 WP MM NOT_NAMED 1933-09-02 21:00:00 NR 32.0000 123.900 main 191 191 __________O___ -1 32.0000 123.900 4 11 28
1933241N17132 1933 46 WP MM NOT_NAMED 1933-09-03 00:00:00 NR 32.4000 124.164 main 211 171 __________P___ -1 32.4000 124.164 4 9 34
1933241N17132 1933 46 WP MM NOT_NAMED 1933-09-03 03:00:00 NR 32.7309 124.475 main 171 134 __________P___ -1 32.7309 124.475 4 8 43
1933241N17132 1933 46 WP MM NOT_NAMED 1933-09-03 06:00:00 NR 33.0214 124.849 main 134 83 __________P___ -1 33.0214 124.849 4 9 51
1933241N17132 1933 46 WP MM NOT_NAMED 1933-09-03 09:00:00 NR 33.3000 125.300 main 83 51 __________O___ -1 33.3000 125.300 4 9 53
1933241N17132 1933 46 WP MM NOT_NAMED 1933-09-03 12:00:00 NR 33.5695 125.727 main 56 28 __________P___ -1 33.5695 125.727 4 10 56
1933241N17132 1933 46 WP MM NOT_NAMED 1933-09-03 15:00:00 NR 33.8385 126.247 main 34 28 __________P___ -1 33.8385 126.247 4 11 60
1933241N17132 1933 46 WP MM NOT_NAMED 1933-09-03 18:00:00 NR 34.1386 126.917 main 33 9 __________P___ -1 34.1386 126.917 4 14 63
1933241N17132 1933 46 WP MM NOT_NAMED 1933-09-03 21:00:00 NR 34.5000 127.800 main 11 11 __________O___ -1 34.5000 127.800 4 19 65
1933241N17132 1933 46 WP MM NOT_NAMED 1933-09-04 00:00:00 NR 34.9158 128.982 main 11 9 __________P___ -1 34.9158 128.982 4 23 67
1933241N17132 1933 46 WP MM NOT_NAMED 1933-09-04 03:00:00 NR 35.3880 130.378 main 90 90 __________P___ -1 35.3880 130.378 4 26 67
1933241N17132 1933 46 WP MM NOT_NAMED 1933-09-04 06:00:00 NR 35.9149 131.885 main 84 75 __________P___ -1 35.9149 131.885 4 27 66
1933241N17132 1933 46 WP MM NOT_NAMED 1933-09-04 09:00:00 NR 36.5000 133.400 main 111 111 __________O___ -1 36.5000 133.400 4 28 62
1933241N17132 1933 46 WP MM NOT_NAMED 1933-09-04 12:00:00 NR 37.2136 134.972 main 140 62 __________P___ -1 37.2136 134.972 4 29 59
1933241N17132 1933 46 WP MM NOT_NAMED 1933-09-04 15:00:00 NR 37.9701 136.515 main 71 69 __________P___ -1 37.9701 136.515 4 27 57
1933241N17132 1933 46 WP MM NOT_NAMED 1933-09-04 18:00:00 NR 38.6900 137.878 main 127 88 __________P___ -1 38.6900 137.878 4 23 54
1933241N17132 1933 46 WP MM NOT_NAMED 1933-09-04 21:00:00 NR 39.3000 138.900 main 88 48 __________O___ -1 39.3000 138.900 4 15 44
1933241N17132 1933 46 WP MM NOT_NAMED 1933-09-05 00:00:00 NR 39.7410 139.211 main 48 42 __________P___ -1 39.7410 139.211 4 8 16
1933241N17132 1933 46 WP MM NOT_NAMED 1933-09-05 03:00:00 NR 40.0763 139.183 main 47 47 __________P___ -1 40.0763 139.183 4 6 352
1933241N17132 1933 46 WP MM NOT_NAMED 1933-09-05 06:00:00 NR 40.3236 139.111 main 67 51 __________P___ -1 40.3236 139.111 4 4 12
1933241N17132 1933 46 WP MM NOT_NAMED 1933-09-05 09:00:00 NR 40.5000 139.300 main 51 0 __________O___ -1 40.5000 139.300 4 9 79
1933241N17132 1933 46 WP MM NOT_NAMED 1933-09-05 12:00:00 NR 40.4985 140.246 main 0 0 __________P___ -1 40.4985 140.246 4 16 92
1933241N17132 1933 46 WP MM NOT_NAMED 1933-09-05 15:00:00 NR 40.4433 141.471 main 0 0 __________P___ -1 40.4433 141.471 4 19 91
1933241N17132 1933 46 WP MM NOT_NAMED 1933-09-05 18:00:00 NR 40.4644 142.783 main 87 87 __________P___ -1 40.4644 142.783 4 19 82
1933241N17132 1933 46 WP MM NOT_NAMED 1933-09-05 21:00:00 NR 40.7000 144.000 main 149 144 __________O___ -1 40.7000 144.000 4 18 63
1933241N17132 1933 46 WP MM NOT_NAMED 1933-09-06 00:00:00 NR 41.2854 144.931 main 153 115 __________P___ -1 41.2854 144.931 4 19 43
1933241N17132 1933 46 WP MM NOT_NAMED 1933-09-06 03:00:00 NR 42.1088 145.751 main 119 72 __________P___ -1 42.1088 145.751 4 21 32
1933241N17132 1933 46 WP MM NOT_NAMED 1933-09-06 06:00:00 NR 43.1028 146.472 main 76 44 __________P___ -1 43.1028 146.472 4 23 25
1933241N17132 1933 46 WP MM NOT_NAMED 1933-09-06 09:00:00 NR 44.2000 147.100 main 34 0 __________O___ -1 44.2000 147.100 4 25 21
1933241N17132 1933 46 WP MM NOT_NAMED 1933-09-06 12:00:00 NR 45.4203 147.713 main 19 19 __________P___ -1 45.4203 147.713 4 26 18
1933241N17132 1933 46 WP MM NOT_NAMED 1933-09-06 15:00:00 NR 46.7050 148.237 main 146 146 __________P___ -1 46.7050 148.237 4 26 15
1933241N17132 1933 46 WP MM NOT_NAMED 1933-09-06 18:00:00 NR 47.9123 148.668 main 229 229 __________P___ -1 47.9123 148.668 4 23 13
1933241N17132 1933 46 WP MM NOT_NAMED 1933-09-06 21:00:00 NR 48.9000 149.000 main 312 312 __________O___ -1 48.9000 149.000 4 16 10
1933241N17132 1933 46 WP MM NOT_NAMED 1933-09-07 00:00:00 NR 49.4450 149.088 main 323 323 __________P___ -1 49.4450 149.088 4 9 4
1933241N17132 1933 46 WP MM NOT_NAMED 1933-09-07 03:00:00 NR 49.7710 149.090 main 332 332 __________P___ -1 49.7710 149.090 4 6 5
1933241N17132 1933 46 WP MM NOT_NAMED 1933-09-07 06:00:00 NR 50.0118 149.171 main 345 345 __________P___ -1 50.0118 149.171 4 6 26
1933241N17132 1933 46 WP MM NOT_NAMED 1933-09-07 09:00:00 NR 50.3000 149.500 main 377 354 __________O___ -1 50.3000 149.500 4 10 43
1933241N17132 1933 46 WP MM NOT_NAMED 1933-09-07 12:00:00 NR 50.7362 150.210 main 354 300 __________P___ -1 50.7362 150.210 4 15 48
1933241N17132 1933 46 WP MM NOT_NAMED 1933-09-07 15:00:00 NR 51.2988 151.258 main 294 258 __________P___ -1 51.2988 151.258 4 19 51
1933241N17132 1933 46 WP MM NOT_NAMED 1933-09-07 18:00:00 NR 51.9365 152.554 main 253 155 __________P___ -1 51.9365 152.554 4 21 52
1933241N17132 1933 46 WP MM NOT_NAMED 1933-09-07 21:00:00 NR 52.6000 154.000 main 149 __________O___ -1 52.6000 154.000 4 22 53

Digital Typhoon Data and Search

About IBTrACS Database

This database is a web-friendly format of International Best Track Archive for Climate Stewardship (IBTrACS), a global best track data archive curated by NOAA dating back to 1842.

Updated: 2021-12-06